Time;durP1;ratioP1;P1;durP2;ratioP2;P2;SDS_P1;SDS_P2;PMS_P1;PMS_P2;Temp;Humidity;BMP_temperature;BMP_pressure;BME280_temperature;BME280_humidity;BME280_pressure;Samples;Min_cycle;Max_cycle;Signal;HPM_P1;HPM_P2
2021/10/17 00:01:23;;;;;;;14.80;12.13;;;;;;;;;;5105234;28;24394;-59
2021/10/17 00:03:48;;;;;;;11.40;10.30;;;;;;;;;;5083100;28;24925;-60
2021/10/17 00:06:13;;;;;;;10.35;9.45;;;;;;;;;;5079802;28;25357;-60
2021/10/17 00:08:38;;;;;;;12.00;10.80;;;;;;;;;;5078869;28;24410;-60
2021/10/17 00:11:03;;;;;;;11.40;10.40;;;;;;;;;;5083035;28;24397;-60
2021/10/17 00:13:28;;;;;;;10.68;9.68;;;;;;;;;;5084971;28;24405;-59
2021/10/17 00:15:54;;;;;;;10.67;9.67;;;;;;;;;;5084729;28;24425;-59
2021/10/17 00:18:19;;;;;;;10.75;9.75;;;;;;;;;;5080565;28;24398;-59
2021/10/17 00:20:44;;;;;;;11.10;10.10;;;;;;;;;;5080912;28;24425;-59
2021/10/17 00:23:09;;;;;;;10.30;9.30;;;;;;;;;;5079310;28;24394;-59
2021/10/17 00:25:35;;;;;;;11.67;9.97;;;;;;;;;;5082499;28;24835;-59
2021/10/17 00:28:00;;;;;;;11.10;10.00;;;;;;;;;;5082784;28;24410;-59
2021/10/17 00:30:25;;;;;;;10.10;9.20;;;;;;;;;;5084197;28;24511;-59
2021/10/17 00:32:51;;;;;;;10.37;9.57;;;;;;;;;;5084330;28;24390;-59
2021/10/17 00:35:16;;;;;;;8.80;8.10;;;;;;;;;;5078696;28;24414;-58
2021/10/17 00:37:41;;;;;;;10.43;9.53;;;;;;;;;;5078680;28;25068;-59
2021/10/17 00:40:08;;;;;;;10.07;9.27;;;;;;;;;;5080257;28;24925;-59
2021/10/17 00:42:33;;;;;;;10.10;9.20;;;;;;;;;;5084097;28;24468;-59
2021/10/17 00:45:00;;;;;;;10.23;9.23;;;;;;;;;;5082598;28;24406;-59
2021/10/17 00:47:25;;;;;;;9.88;9.07;;;;;;;;;;5084496;28;24402;-59
2021/10/17 00:49:50;;;;;;;10.80;9.80;;;;;;;;;;5079905;28;24417;-59
2021/10/17 00:52:15;;;;;;;9.33;8.50;;;;;;;;;;5078771;28;24406;-59
2021/10/17 00:54:41;;;;;;;10.93;9.93;;;;;;;;;;5080110;28;24412;-60
2021/10/17 00:57:06;;;;;;;11.03;10.00;;;;;;;;;;5083847;28;24928;-60
2021/10/17 00:59:31;;;;;;;10.13;9.23;;;;;;;;;;5083802;28;24431;-59
2021/10/17 01:01:57;;;;;;;11.27;10.20;;;;;;;;;;5087389;28;24466;-59
2021/10/17 01:04:22;;;;;;;11.07;10.10;;;;;;;;;;5102484;28;25027;-59
2021/10/17 01:06:47;;;;;;;11.40;10.50;;;;;;;;;;5100413;28;24397;-60
2021/10/17 01:09:12;;;;;;;11.30;10.20;;;;;;;;;;5098353;28;24492;-59
2021/10/17 01:11:38;;;;;;;11.55;10.45;;;;;;;;;;5102157;28;24382;-59
2021/10/17 01:14:03;;;;;;;10.70;9.80;;;;;;;;;;5104126;28;24390;-59
2021/10/17 01:16:28;;;;;;;10.97;9.80;;;;;;;;;;5104208;28;24970;-60
2021/10/17 01:18:53;;;;;;;11.32;10.32;;;;;;;;;;5103754;28;24506;-59
2021/10/17 01:21:21;;;;;;;10.95;9.95;;;;;;;;;;5098478;28;24441;-59
2021/10/17 01:23:46;;;;;;;10.50;9.60;;;;;;;;;;5100018;28;24386;-59
2021/10/17 01:26:12;;;;;;;9.50;8.70;;;;;;;;;;5102318;28;24400;-59
2021/10/17 01:28:37;;;;;;;10.23;9.33;;;;;;;;;;5103760;28;24442;-59
2021/10/17 01:31:02;;;;;;;10.80;9.80;;;;;;;;;;5102048;28;24830;-59
2021/10/17 01:33:27;;;;;;;10.20;9.30;;;;;;;;;;5103817;28;24402;-60
2021/10/17 01:35:52;;;;;;;10.32;9.43;;;;;;;;;;5100276;28;24413;-59
2021/10/17 01:38:17;;;;;;;11.45;10.35;;;;;;;;;;5098282;28;24763;-60
2021/10/17 01:40:42;;;;;;;13.18;11.90;;;;;;;;;;5099987;28;24431;-60
2021/10/17 01:43:08;;;;;;;13.87;12.67;;;;;;;;;;5102127;28;24432;-60
2021/10/17 01:45:33;;;;;;;13.33;12.03;;;;;;;;;;5103782;28;24444;-59
2021/10/17 01:47:58;;;;;;;12.40;11.30;;;;;;;;;;5102248;28;24508;-59
2021/10/17 01:50:23;;;;;;;13.27;12.03;;;;;;;;;;5100000;28;24557;-59
2021/10/17 01:52:49;;;;;;;12.80;11.67;;;;;;;;;;5099737;28;24753;-60
2021/10/17 01:55:14;;;;;;;12.80;11.80;;;;;;;;;;5100246;28;24417;-59
2021/10/17 01:57:39;;;;;;;12.70;11.50;;;;;;;;;;5103613;28;24439;-60
2021/10/17 02:00:06;;;;;;;12.83;11.53;;;;;;;;;;5101825;28;25008;-59
2021/10/17 02:02:31;;;;;;;12.60;11.40;;;;;;;;;;5094058;28;24418;-59
2021/10/17 02:04:56;;;;;;;10.90;9.80;;;;;;;;;;5079454;28;24410;-60
2021/10/17 02:07:21;;;;;;;10.90;9.82;;;;;;;;;;5078574;28;24397;-60
2021/10/17 02:09:46;;;;;;;10.85;9.85;;;;;;;;;;5083321;28;24413;-61
2021/10/17 02:12:12;;;;;;;11.10;10.10;;;;;;;;;;5087235;28;24600;-59
2021/10/17 02:14:37;;;;;;;10.33;9.43;;;;;;;;;;5087084;28;24471;-59
2021/10/17 02:17:05;;;;;;;8.70;8.00;;;;;;;;;;5085014;28;24742;-59
2021/10/17 02:19:30;;;;;;;9.35;8.55;;;;;;;;;;5083391;28;24505;-60
2021/10/17 02:21:55;;;;;;;10.13;9.27;;;;;;;;;;5083162;28;24742;-60
2021/10/17 02:24:20;;;;;;;9.32;8.43;;;;;;;;;;5082954;28;24393;-60
2021/10/17 02:26:45;;;;;;;8.82;8.10;;;;;;;;;;5087068;28;24416;-60
2021/10/17 02:29:11;;;;;;;8.90;8.10;;;;;;;;;;5084875;28;24386;-60
2021/10/17 02:31:36;;;;;;;9.50;8.70;;;;;;;;;;5086606;28;24492;-60
2021/10/17 02:34:01;;;;;;;9.00;8.10;;;;;;;;;;5083149;28;24432;-59
2021/10/17 02:36:26;;;;;;;9.10;8.20;;;;;;;;;;5081110;28;24479;-60
2021/10/17 02:38:52;;;;;;;10.02;9.02;;;;;;;;;;5082487;28;24428;-60
2021/10/17 02:41:17;;;;;;;9.73;8.75;;;;;;;;;;5086688;28;24382;-60
2021/10/17 02:43:42;;;;;;;9.27;8.47;;;;;;;;;;5085956;28;24927;-60
2021/10/17 02:46:07;;;;;;;9.17;8.37;;;;;;;;;;5084794;28;24406;-60
2021/10/17 02:48:32;;;;;;;9.07;8.17;;;;;;;;;;5086160;28;24463;-60
2021/10/17 02:50:58;;;;;;;9.10;8.20;;;;;;;;;;5082840;28;24959;-60
2021/10/17 02:53:23;;;;;;;8.73;8.03;;;;;;;;;;5082350;28;24394;-59
2021/10/17 02:55:48;;;;;;;8.93;8.13;;;;;;;;;;5081093;28;24414;-60
2021/10/17 02:58:13;;;;;;;10.18;9.27;;;;;;;;;;5082655;28;25794;-59
2021/10/17 03:00:38;;;;;;;9.30;8.40;;;;;;;;;;5085999;28;24764;-60
2021/10/17 03:03:04;;;;;;;10.25;9.35;;;;;;;;;;5098776;28;24458;-60
2021/10/17 03:05:29;;;;;;;9.40;8.57;;;;;;;;;;5103089;28;24519;-59
2021/10/17 03:07:54;;;;;;;9.80;8.80;;;;;;;;;;5102647;28;24420;-60
2021/10/17 03:10:22;;;;;;;9.50;8.60;;;;;;;;;;5102183;28;24398;-59
2021/10/17 03:12:47;;;;;;;8.80;8.00;;;;;;;;;;5106494;28;24393;-59
2021/10/17 03:15:12;;;;;;;9.27;8.48;;;;;;;;;;5104555;28;24445;-59
2021/10/17 03:17:37;;;;;;;10.00;9.10;;;;;;;;;;5106271;28;24437;-60
2021/10/17 03:20:03;;;;;;;9.60;8.70;;;;;;;;;;5100280;28;26031;-60
2021/10/17 03:22:29;;;;;;;10.30;9.30;;;;;;;;;;5100719;27;24528;-60
2021/10/17 03:24:54;;;;;;;9.77;8.77;;;;;;;;;;5104162;28;24438;-60
2021/10/17 03:27:19;;;;;;;8.70;7.85;;;;;;;;;;5104322;28;24409;-59
2021/10/17 03:29:44;;;;;;;9.38;8.43;;;;;;;;;;5105924;28;24409;-59
2021/10/17 03:32:10;;;;;;;8.80;8.00;;;;;;;;;;5104422;28;24426;-59
2021/10/17 03:34:35;;;;;;;9.90;8.90;;;;;;;;;;5102067;28;24417;-60
2021/10/17 03:37:00;;;;;;;9.40;8.50;;;;;;;;;;5102049;28;24490;-60
2021/10/17 03:39:25;;;;;;;8.65;7.85;;;;;;;;;;5101845;28;24740;-60
2021/10/17 03:41:50;;;;;;;8.60;7.80;;;;;;;;;;5105111;28;24394;-60
2021/10/17 03:44:15;;;;;;;8.60;7.80;;;;;;;;;;5103874;28;24490;-60
2021/10/17 03:46:41;;;;;;;8.30;7.60;;;;;;;;;;5105573;27;24744;-59
2021/10/17 03:49:06;;;;;;;8.00;7.30;;;;;;;;;;5102147;28;24428;-59
2021/10/17 03:51:31;;;;;;;7.93;7.13;;;;;;;;;;5100011;28;24431;-60
2021/10/17 03:53:56;;;;;;;8.17;7.47;;;;;;;;;;5101984;28;24411;-60
2021/10/17 03:56:21;;;;;;;8.60;7.70;;;;;;;;;;5105396;28;24802;-60
2021/10/17 03:58:46;;;;;;;8.70;8.00;;;;;;;;;;5105649;27;24428;-59
2021/10/17 04:01:12;;;;;;;8.00;7.20;;;;;;;;;;5103251;28;24844;-60
2021/10/17 04:03:37;;;;;;;8.15;7.55;;;;;;;;;;5086191;28;24982;-60
2021/10/17 04:06:05;;;;;;;7.93;7.23;;;;;;;;;;5079698;28;24966;-60
2021/10/17 04:08:30;;;;;;;8.00;7.30;;;;;;;;;;5079458;28;24986;-59
2021/10/17 04:10:55;;;;;;;8.38;7.57;;;;;;;;;;5082746;28;24665;-59
2021/10/17 04:13:20;;;;;;;9.15;8.25;;;;;;;;;;5084946;28;24749;-60
2021/10/17 04:15:46;;;;;;;8.52;7.70;;;;;;;;;;5084793;28;24514;-59
2021/10/17 04:18:11;;;;;;;8.43;7.63;;;;;;;;;;5083011;28;24391;-60
2021/10/17 04:20:36;;;;;;;8.70;7.80;;;;;;;;;;5078938;28;24386;-60
2021/10/17 04:23:03;;;;;;;8.33;7.53;;;;;;;;;;5079307;28;24459;-60
2021/10/17 04:25:28;;;;;;;8.00;7.30;;;;;;;;;;5084691;28;24401;-60
2021/10/17 04:27:53;;;;;;;8.35;7.63;;;;;;;;;;5082693;28;24789;-59
2021/10/17 04:30:18;;;;;;;8.13;7.37;;;;;;;;;;5083824;28;24472;-59
2021/10/17 04:32:44;;;;;;;8.50;7.70;;;;;;;;;;5084635;28;24396;-59
2021/10/17 04:35:09;;;;;;;9.30;8.40;;;;;;;;;;5080780;28;24518;-60
2021/10/17 04:37:34;;;;;;;8.80;7.90;;;;;;;;;;5078607;28;25029;-60
2021/10/17 04:40:00;;;;;;;8.05;7.25;;;;;;;;;;5080684;28;24425;-59
2021/10/17 04:42:25;;;;;;;8.47;7.70;;;;;;;;;;5084199;28;24490;-59
2021/10/17 04:44:50;;;;;;;8.20;7.50;;;;;;;;;;5084201;28;24424;-60
2021/10/17 04:47:15;;;;;;;7.38;6.68;;;;;;;;;;5082416;28;24406;-60
2021/10/17 04:49:40;;;;;;;8.20;7.50;;;;;;;;;;5082010;28;25000;-60
2021/10/17 04:52:05;;;;;;;8.10;7.40;;;;;;;;;;5078696;28;24528;-60
2021/10/17 04:54:31;;;;;;;8.88;7.97;;;;;;;;;;5080362;28;24394;-60
2021/10/17 04:56:56;;;;;;;8.23;7.43;;;;;;;;;;5082293;28;24451;-59
2021/10/17 04:59:22;;;;;;;8.60;7.80;;;;;;;;;;5084085;28;24983;-60
2021/10/17 05:01:48;;;;;;;8.57;7.88;;;;;;;;;;5087240;28;24977;-59
2021/10/17 05:04:13;;;;;;;9.00;8.07;;;;;;;;;;5102522;28;24424;-60
2021/10/17 05:06:38;;;;;;;8.97;7.90;;;;;;;;;;5098524;28;24916;-59
2021/10/17 05:09:03;;;;;;;8.38;7.57;;;;;;;;;;5098649;28;24551;-60
2021/10/17 05:11:29;;;;;;;8.70;7.90;;;;;;;;;;5104236;28;24508;-59
2021/10/17 05:13:54;;;;;;;8.70;7.90;;;;;;;;;;5102253;28;24483;-59
2021/10/17 05:16:19;;;;;;;8.60;7.80;;;;;;;;;;5103786;28;24425;-60
2021/10/17 05:18:45;;;;;;;7.83;7.13;;;;;;;;;;5104040;28;24393;-60
2021/10/17 05:21:10;;;;;;;7.82;7.05;;;;;;;;;;5098402;28;24397;-60
2021/10/17 05:23:35;;;;;;;8.07;7.28;;;;;;;;;;5098361;27;24431;-59
2021/10/17 05:26:03;;;;;;;7.97;7.27;;;;;;;;;;5102195;28;24491;-60
2021/10/17 05:28:28;;;;;;;8.02;7.22;;;;;;;;;;5103896;28;24469;-60
2021/10/17 05:30:53;;;;;;;8.23;7.43;;;;;;;;;;5103801;28;25054;-60
2021/10/17 05:33:18;;;;;;;8.00;7.05;;;;;;;;;;5102275;28;25263;-61
2021/10/17 05:35:43;;;;;;;8.30;7.50;;;;;;;;;;5100304;28;24432;-60
2021/10/17 05:38:08;;;;;;;8.90;7.72;;;;;;;;;;5098334;28;24787;-60
2021/10/17 05:40:34;;;;;;;7.50;6.80;;;;;;;;;;5102058;28;24389;-59
2021/10/17 05:42:59;;;;;;;7.75;7.05;;;;;;;;;;5103993;28;24394;-60
2021/10/17 05:45:24;;;;;;;7.65;6.85;;;;;;;;;;5108089;28;24389;-60
2021/10/17 05:47:49;;;;;;;7.90;7.18;;;;;;;;;;5107707;28;24766;-60
2021/10/17 05:50:14;;;;;;;7.90;7.20;;;;;;;;;;5106090;28;25363;-59
2021/10/17 05:52:39;;;;;;;7.65;6.85;;;;;;;;;;5102076;28;24484;-60
2021/10/17 05:55:04;;;;;;;7.63;6.65;;;;;;;;;;5102545;28;24436;-60
2021/10/17 05:57:30;;;;;;;8.10;7.40;;;;;;;;;;5106054;28;24985;-60
2021/10/17 05:59:55;;;;;;;8.60;7.80;;;;;;;;;;5105660;28;24455;-59
2021/10/17 06:02:20;;;;;;;7.90;7.20;;;;;;;;;;5099252;28;24954;-60
2021/10/17 06:04:45;;;;;;;7.67;6.90;;;;;;;;;;5087126;28;24453;-60
2021/10/17 06:07:11;;;;;;;7.10;6.47;;;;;;;;;;5083713;28;24383;-60
2021/10/17 06:09:37;;;;;;;7.40;6.70;;;;;;;;;;5081589;28;25005;-60
2021/10/17 06:12:03;;;;;;;8.10;7.40;;;;;;;;;;5083158;28;24441;-60
2021/10/17 06:14:28;;;;;;;7.90;7.20;;;;;;;;;;5087256;28;24468;-60
2021/10/17 06:16:53;;;;;;;7.78;6.97;;;;;;;;;;5086877;28;24456;-60
2021/10/17 06:19:18;;;;;;;8.97;8.07;;;;;;;;;;5083669;28;24887;-60
2021/10/17 06:21:43;;;;;;;8.63;7.82;;;;;;;;;;5082745;28;24871;-60
2021/10/17 06:24:09;;;;;;;8.50;7.80;;;;;;;;;;5081495;28;24401;-60
2021/10/17 06:26:34;;;;;;;8.67;7.93;;;;;;;;;;5086942;28;24412;-59
2021/10/17 06:28:59;;;;;;;8.40;7.65;;;;;;;;;;5085251;28;24406;-59
2021/10/17 06:31:24;;;;;;;9.57;8.68;;;;;;;;;;5086557;28;24867;-60
2021/10/17 06:33:49;;;;;;;8.30;7.60;;;;;;;;;;5084784;28;24398;-59
2021/10/17 06:36:14;;;;;;;8.60;7.80;;;;;;;;;;5080957;28;24525;-60
2021/10/17 06:38:39;;;;;;;8.70;7.90;;;;;;;;;;5080838;28;24756;-60
2021/10/17 06:41:05;;;;;;;9.60;8.70;;;;;;;;;;5084766;28;24425;-59
2021/10/17 06:43:30;;;;;;;9.25;8.35;;;;;;;;;;5086230;28;24438;-60
2021/10/17 06:45:55;;;;;;;10.57;9.20;;;;;;;;;;5085644;28;24552;-60
2021/10/17 06:48:20;;;;;;;9.60;8.70;;;;;;;;;;5085670;28;24406;-60
2021/10/17 06:50:45;;;;;;;9.80;8.88;;;;;;;;;;5082525;28;24444;-60
2021/10/17 06:53:11;;;;;;;10.67;9.40;;;;;;;;;;5080250;28;24445;-60
2021/10/17 06:55:36;;;;;;;10.00;9.10;;;;;;;;;;5084585;28;24479;-60
2021/10/17 06:58:01;;;;;;;10.30;9.40;;;;;;;;;;5084225;28;24847;-60
2021/10/17 07:00:26;;;;;;;9.90;9.00;;;;;;;;;;5086234;28;24386;-60
2021/10/17 07:02:51;;;;;;;10.50;9.57;;;;;;;;;;5098404;28;24470;-60
2021/10/17 07:05:16;;;;;;;10.30;9.30;;;;;;;;;;5101124;28;24808;-60
2021/10/17 07:07:41;;;;;;;12.18;10.93;;;;;;;;;;5100569;27;24398;-60
2021/10/17 07:10:07;;;;;;;11.75;10.55;;;;;;;;;;5104492;28;24390;-60
2021/10/17 07:12:32;;;;;;;10.90;9.90;;;;;;;;;;5106304;28;24834;-60
2021/10/17 07:14:57;;;;;;;12.23;10.98;;;;;;;;;;5104593;28;24441;-60
2021/10/17 07:17:22;;;;;;;10.73;9.73;;;;;;;;;;5104293;28;24970;-60
2021/10/17 07:19:48;;;;;;;10.10;9.10;;;;;;;;;;5102157;28;24434;-60
2021/10/17 07:22:13;;;;;;;10.90;9.80;;;;;;;;;;5100593;28;24446;-60
2021/10/17 07:24:38;;;;;;;9.33;8.53;;;;;;;;;;5102457;28;24401;-60
2021/10/17 07:27:03;;;;;;;8.80;7.90;;;;;;;;;;5105992;28;24397;-59
2021/10/17 07:29:29;;;;;;;9.80;8.80;;;;;;;;;;5105907;28;24926;-61
2021/10/17 07:31:54;;;;;;;9.70;8.80;;;;;;;;;;5105761;28;24454;-60
2021/10/17 07:34:19;;;;;;;9.40;8.50;;;;;;;;;;5101763;28;24509;-60
2021/10/17 07:36:44;;;;;;;8.83;8.03;;;;;;;;;;5101004;28;24826;-60
2021/10/17 07:39:11;;;;;;;8.80;8.00;;;;;;;;;;5101845;28;24414;-60
2021/10/17 07:41:36;;;;;;;10.45;9.35;;;;;;;;;;5103912;27;24386;-59
2021/10/17 07:44:01;;;;;;;9.90;8.98;;;;;;;;;;5103718;28;24961;-59
2021/10/17 07:46:26;;;;;;;8.63;7.82;;;;;;;;;;5105790;28;24386;-59
2021/10/17 07:48:56;;;;;;;8.40;7.60;;;;;;;;;;5101663;28;24417;-59
2021/10/17 07:51:22;;;;;;;9.18;8.38;;;;;;;;;;5099598;28;24439;-60
2021/10/17 07:53:47;;;;;;;8.60;7.80;;;;;;;;;;5101567;28;24398;-60
2021/10/17 07:56:12;;;;;;;10.73;9.63;;;;;;;;;;5103563;28;24932;-59
2021/10/17 07:58:37;;;;;;;9.63;8.73;;;;;;;;;;5105491;28;24385;-60
2021/10/17 08:01:02;;;;;;;8.32;7.57;;;;;;;;;;5103481;28;24406;-60
2021/10/17 08:03:27;;;;;;;7.70;7.00;;;;;;;;;;5085609;28;24409;-60
2021/10/17 08:05:53;;;;;;;8.03;7.30;;;;;;;;;;5080261;28;24395;-60
2021/10/17 08:08:18;;;;;;;10.23;9.23;;;;;;;;;;5079464;28;24502;-60
2021/10/17 08:10:43;;;;;;;9.25;8.43;;;;;;;;;;5082677;28;24390;-60
2021/10/17 08:13:08;;;;;;;8.52;7.72;;;;;;;;;;5084774;28;24409;-60
2021/10/17 08:15:33;;;;;;;9.23;8.43;;;;;;;;;;5084921;28;24572;-60
2021/10/17 08:17:58;;;;;;;10.35;9.35;;;;;;;;;;5082673;28;24486;-60
2021/10/17 08:20:23;;;;;;;9.30;8.40;;;;;;;;;;5079138;28;24866;-60
2021/10/17 08:22:49;;;;;;;9.30;8.40;;;;;;;;;;5080893;28;24444;-60
2021/10/17 08:25:14;;;;;;;9.00;8.20;;;;;;;;;;5080733;28;24418;-60
2021/10/17 08:27:40;;;;;;;8.00;7.30;;;;;;;;;;5084541;28;24808;-60
2021/10/17 08:30:05;;;;;;;8.60;7.80;;;;;;;;;;5082840;28;24499;-60
2021/10/17 08:32:31;;;;;;;8.90;8.10;;;;;;;;;;5084438;28;24823;-60
2021/10/17 08:34:56;;;;;;;8.07;7.37;;;;;;;;;;5080519;28;24467;-60
2021/10/17 08:37:21;;;;;;;8.00;7.30;;;;;;;;;;5079133;28;24413;-60
2021/10/17 08:39:46;;;;;;;8.13;7.43;;;;;;;;;;5080676;28;24393;-60
2021/10/17 08:42:11;;;;;;;9.00;8.20;;;;;;;;;;5083885;28;25273;-61
2021/10/17 08:44:36;;;;;;;9.80;8.90;;;;;;;;;;5084082;28;24435;-60
2021/10/17 08:47:02;;;;;;;8.95;8.15;;;;;;;;;;5080826;28;24975;-60
2021/10/17 08:49:27;;;;;;;8.37;7.67;;;;;;;;;;5078652;28;24528;-59
2021/10/17 08:51:53;;;;;;;8.30;7.55;;;;;;;;;;5080295;28;24757;-60
2021/10/17 08:54:18;;;;;;;9.23;8.43;;;;;;;;;;5080678;28;24470;-61
2021/10/17 08:56:43;;;;;;;10.40;9.40;;;;;;;;;;5083753;28;24426;-60
2021/10/17 08:59:08;;;;;;;9.50;8.67;;;;;;;;;;5082372;28;24802;-61
2021/10/17 09:01:34;;;;;;;9.30;8.40;;;;;;;;;;5085792;28;24469;-60
2021/10/17 09:04:00;;;;;;;8.80;8.00;;;;;;;;;;5100353;28;25012;-60
2021/10/17 09:06:30;;;;;;;8.80;8.00;;;;;;;;;;5098540;28;24743;-60
2021/10/17 09:09:09;;;;;;;8.35;7.55;;;;;;;;;;5100396;28;25004;-59
2021/10/17 09:11:39;;;;;;;9.10;8.25;;;;;;;;;;5104187;28;24962;-60
2021/10/17 09:14:05;;;;;;;8.30;7.60;;;;;;;;;;5103854;28;24401;-59
2021/10/17 09:16:33;;;;;;;8.00;7.30;;;;;;;;;;5103326;28;24417;-59
2021/10/17 09:19:09;;;;;;;8.98;8.18;;;;;;;;;;5099829;28;24444;-60
2021/10/17 09:21:34;;;;;;;10.50;9.43;;;;;;;;;;5098559;28;24401;-60
2021/10/17 09:23:59;;;;;;;8.52;7.82;;;;;;;;;;5100360;28;24385;-60
2021/10/17 09:26:25;;;;;;;8.43;7.63;;;;;;;;;;5119886;27;24966;-60
2021/10/17 09:28:51;;;;;;;7.32;6.63;;;;;;;;;;5104123;28;24396;-59
2021/10/17 09:31:17;;;;;;;7.00;6.40;;;;;;;;;;5101737;28;24422;-59
2021/10/17 09:33:53;;;;;;;6.30;5.80;;;;;;;;;;5101767;28;24378;-60
2021/10/17 09:36:29;;;;;;;7.60;6.70;;;;;;;;;;5098622;28;24426;-60
2021/10/17 09:39:32;;;;;;;6.80;6.20;;;;;;;;;;5100097;28;24484;-59
2021/10/17 09:41:50;;;;;;;6.10;5.50;;;;;;;;;;5100317;28;24486;-60
2021/10/17 09:44:16;;;;;;;5.28;4.70;;;;;;;;;;5102256;28;24902;-60
2021/10/17 09:46:55;;;;;;;6.05;5.45;;;;;;;;;;5103697;28;24931;-60
2021/10/17 09:49:20;;;;;;;3.78;3.47;;;;;;;;;;5097949;28;25395;-61
2021/10/17 09:51:45;;;;;;;4.40;4.00;;;;;;;;;;5097918;28;26104;-61
2021/10/17 09:54:10;;;;;;;6.13;3.90;;;;;;;;;;5099824;28;24474;-61
2021/10/17 09:56:39;;;;;;;3.78;2.75;;;;;;;;;;5103889;28;25066;-61
2021/10/17 09:59:04;;;;;;;2.90;2.60;;;;;;;;;;5101904;28;24401;-60
2021/10/17 10:01:30;;;;;;;3.33;2.70;;;;;;;;;;5102369;28;24382;-60
2021/10/17 10:03:56;;;;;;;4.57;3.00;;;;;;;;;;5083047;28;24486;-60
2021/10/17 10:06:22;;;;;;;3.97;2.80;;;;;;;;;;5079818;28;25086;-61
2021/10/17 10:08:47;;;;;;;6.43;2.77;;;;;;;;;;5079516;28;24394;-60
2021/10/17 10:11:13;;;;;;;2.30;2.10;;;;;;;;;;5077950;28;24606;-60
2021/10/17 10:13:39;;;;;;;3.88;2.50;;;;;;;;;;5079278;28;24414;-60
2021/10/17 10:16:05;;;;;;;4.90;3.22;;;;;;;;;;5083457;28;24471;-60
2021/10/17 10:18:31;;;;;;;3.15;2.33;;;;;;;;;;5083256;28;24811;-60
2021/10/17 10:20:56;;;;;;;4.20;2.42;;;;;;;;;;5081175;28;24386;-60
2021/10/17 10:23:22;;;;;;;3.53;2.00;;;;;;;;;;5077442;28;25449;-61
2021/10/17 10:25:49;;;;;;;4.47;2.47;;;;;;;;;;5077003;28;24426;-58
2021/10/17 10:28:14;;;;;;;4.30;2.53;;;;;;;;;;5083735;28;24418;-59
2021/10/17 10:30:39;;;;;;;4.43;3.00;;;;;;;;;;5086878;28;24568;-59
2021/10/17 10:33:15;;;;;;;3.20;2.50;;;;;;;;;;5084971;28;24921;-59
2021/10/17 10:35:58;;;;;;;3.63;2.30;;;;;;;;;;5082731;28;25001;-59
2021/10/17 10:38:43;;;;;;;3.08;1.98;;;;;;;;;;5081171;28;24402;-59
2021/10/17 10:41:35;;;;;;;3.45;2.05;;;;;;;;;;5084832;28;24402;-58
2021/10/17 10:44:12;;;;;;;3.35;2.50;;;;;;;;;;5075460;28;24460;-58
2021/10/17 10:46:37;;;;;;;3.25;2.20;;;;;;;;;;5086464;28;24951;-59
2021/10/17 10:49:02;;;;;;;3.30;2.25;;;;;;;;;;5083904;28;24402;-59
2021/10/17 10:51:46;;;;;;;4.13;2.60;;;;;;;;;;5080717;28;24452;-58
2021/10/17 10:54:23;;;;;;;4.30;2.70;;;;;;;;;;5080638;28;24853;-59
2021/10/17 10:56:49;;;;;;;3.47;2.55;;;;;;;;;;5083871;28;24841;-58
2021/10/17 10:59:16;;;;;;;3.90;2.40;;;;;;;;;;5085037;28;25229;-59
2021/10/17 11:02:02;;;;;;;3.25;1.90;;;;;;;;;;5100477;28;24510;-58
2021/10/17 11:04:45;;;;;;;2.63;2.10;;;;;;;;;;5104924;28;24404;-59
2021/10/17 11:07:16;;;;;;;4.10;2.70;;;;;;;;;;5101035;28;24390;-59
2021/10/17 11:09:41;;;;;;;2.13;1.80;;;;;;;;;;5100658;28;24394;-59
2021/10/17 11:12:07;;;;;;;3.30;2.47;;;;;;;;;;5104744;28;24389;-59
2021/10/17 11:14:32;;;;;;;2.03;1.90;;;;;;;;;;5106734;28;24967;-59
2021/10/17 11:17:00;;;;;;;3.53;2.07;;;;;;;;;;5104394;28;24418;-59
2021/10/17 11:19:25;;;;;;;3.60;2.17;;;;;;;;;;5102394;28;24463;-59
2021/10/17 11:21:58;;;;;;;4.40;2.60;;;;;;;;;;5102544;28;24491;-59
2021/10/17 11:24:23;;;;;;;3.70;2.30;;;;;;;;;;5102671;28;24442;-58
2021/10/17 11:27:06;;;;;;;2.42;1.80;;;;;;;;;;5106236;28;24724;-59
2021/10/17 11:29:41;;;;;;;4.07;2.30;;;;;;;;;;5105876;28;24470;-59
2021/10/17 11:32:07;;;;;;;4.10;2.50;;;;;;;;;;5103995;28;24751;-60
2021/10/17 11:34:32;;;;;;;2.85;2.53;;;;;;;;;;5100685;28;24989;-60
2021/10/17 11:37:16;;;;;;;2.97;2.30;;;;;;;;;;5099995;27;24541;-60
2021/10/17 11:39:58;;;;;;;2.70;2.10;;;;;;;;;;5101577;28;25005;-60
2021/10/17 11:42:25;;;;;;;3.22;2.50;;;;;;;;;;5105820;28;24405;-60
2021/10/17 11:44:50;;;;;;;4.00;2.47;;;;;;;;;;5105912;28;24402;-60
2021/10/17 11:47:16;;;;;;;3.93;2.50;;;;;;;;;;5103862;28;24389;-59
2021/10/17 11:49:41;;;;;;;3.43;2.50;;;;;;;;;;5100081;27;24719;-59
2021/10/17 11:52:10;;;;;;;2.83;2.10;;;;;;;;;;5100475;27;24488;-60
2021/10/17 11:54:48;;;;;;;4.00;2.60;;;;;;;;;;5104119;28;24425;-59
2021/10/17 11:57:26;;;;;;;5.10;2.40;;;;;;;;;;5105301;27;24966;-58
2021/10/17 11:59:59;;;;;;;2.90;2.00;;;;;;;;;;5105713;28;24755;-59
2021/10/17 12:02:31;;;;;;;4.15;2.58;;;;;;;;;;5083248;28;24406;-58
2021/10/17 12:04:56;;;;;;;2.60;2.40;;;;;;;;;;5081157;28;24381;-59
2021/10/17 12:07:21;;;;;;;2.47;2.10;;;;;;;;;;5079575;28;24387;-60
2021/10/17 12:09:46;;;;;;;2.70;2.10;;;;;;;;;;5080827;28;24386;-60
2021/10/17 12:12:12;;;;;;;5.20;2.60;;;;;;;;;;5085133;28;24582;-61
2021/10/17 12:14:37;;;;;;;2.20;2.00;;;;;;;;;;5084892;28;24393;-60
2021/10/17 12:17:02;;;;;;;3.40;2.60;;;;;;;;;;5082706;28;24508;-60
2021/10/17 12:19:27;;;;;;;3.55;2.50;;;;;;;;;;5079237;28;24439;-60
2021/10/17 12:21:53;;;;;;;2.10;2.00;;;;;;;;;;5080959;28;24776;-60
2021/10/17 12:24:19;;;;;;;2.60;2.20;;;;;;;;;;5080854;28;24520;-60
2021/10/17 12:26:52;;;;;;;2.78;2.10;;;;;;;;;;5084760;28;24400;-60
2021/10/17 12:29:18;;;;;;;2.58;1.95;;;;;;;;;;5082755;28;24978;-60
2021/10/17 12:31:43;;;;;;;1.95;1.75;;;;;;;;;;5084354;28;24450;-60
2021/10/17 12:34:09;;;;;;;2.38;1.85;;;;;;;;;;5082677;28;24447;-60
2021/10/17 12:36:35;;;;;;;3.40;2.10;;;;;;;;;;5078964;28;24414;-60
2021/10/17 12:39:02;;;;;;;6.40;2.40;;;;;;;;;;5078696;28;25219;-60
2021/10/17 12:41:29;;;;;;;3.15;2.30;;;;;;;;;;5084126;28;24418;-60
2021/10/17 12:43:58;;;;;;;2.83;2.10;;;;;;;;;;5082270;28;24741;-59
2021/10/17 12:46:23;;;;;;;2.13;1.75;;;;;;;;;;5084352;28;24403;-60
2021/10/17 12:48:49;;;;;;;2.78;1.80;;;;;;;;;;5084338;28;24531;-59
2021/10/17 12:51:34;;;;;;;2.72;2.13;;;;;;;;;;5078122;28;24402;-60
2021/10/17 12:54:06;;;;;;;2.20;1.60;;;;;;;;;;5078686;28;24490;-60
2021/10/17 12:56:31;;;;;;;2.40;2.17;;;;;;;;;;5084635;28;24409;-60
2021/10/17 12:59:13;;;;;;;3.20;2.23;;;;;;;;;;5082183;28;24391;-60
2021/10/17 13:01:56;;;;;;;2.17;1.70;;;;;;;;;;5097320;28;24478;-60
2021/10/17 13:04:22;;;;;;;2.92;1.77;;;;;;;;;;5102307;28;24417;-60
2021/10/17 13:06:51;;;;;;;3.23;2.07;;;;;;;;;;5100953;28;24837;-60
2021/10/17 13:09:16;;;;;;;3.95;3.30;;;;;;;;;;5099021;28;24397;-60
2021/10/17 13:11:42;;;;;;;3.17;2.30;;;;;;;;;;5102372;28;24401;-60
2021/10/17 13:14:08;;;;;;;4.60;2.50;;;;;;;;;;5103915;28;24644;-60
2021/10/17 13:16:36;;;;;;;4.10;2.40;;;;;;;;;;5104035;28;24440;-60
2021/10/17 13:19:01;;;;;;;3.00;2.13;;;;;;;;;;5102171;28;24516;-60
2021/10/17 13:21:26;;;;;;;2.38;2.10;;;;;;;;;;5098559;28;24496;-60
2021/10/17 13:23:51;;;;;;;2.53;1.90;;;;;;;;;;5100241;28;24932;-60
2021/10/17 13:26:16;;;;;;;2.92;2.20;;;;;;;;;;5100670;28;24397;-60
2021/10/17 13:28:42;;;;;;;2.40;2.10;;;;;;;;;;5102118;28;24494;-60
2021/10/17 13:31:07;;;;;;;2.80;1.90;;;;;;;;;;5101780;28;24522;-60
2021/10/17 13:33:32;;;;;;;2.97;2.13;;;;;;;;;;5104204;28;24733;-60
2021/10/17 13:35:57;;;;;;;2.90;1.85;;;;;;;;;;5100027;28;25034;-60
2021/10/17 13:38:22;;;;;;;3.20;2.00;;;;;;;;;;5098653;28;24969;-60
2021/10/17 13:40:48;;;;;;;2.53;2.00;;;;;;;;;;5100553;28;24427;-60
2021/10/17 13:43:13;;;;;;;2.17;1.90;;;;;;;;;;5103977;28;24903;-60
2021/10/17 13:45:38;;;;;;;3.30;2.15;;;;;;;;;;5103883;28;24872;-60
2021/10/17 13:48:03;;;;;;;3.40;2.55;;;;;;;;;;5101705;28;24412;-60
2021/10/17 13:50:29;;;;;;;4.13;2.47;;;;;;;;;;5102169;28;24509;-59
2021/10/17 13:52:54;;;;;;;2.00;1.80;;;;;;;;;;5099824;28;24437;-59
2021/10/17 13:55:19;;;;;;;2.10;1.90;;;;;;;;;;5098296;28;24418;-59
2021/10/17 13:57:45;;;;;;;2.28;2.08;;;;;;;;;;5099927;28;24437;-59
2021/10/17 14:00:11;;;;;;;1.70;1.60;;;;;;;;;;5098400;28;24915;-58
2021/10/17 14:02:36;;;;;;;1.58;1.48;;;;;;;;;;5083467;28;24455;-59
2021/10/17 14:05:02;;;;;;;2.00;1.60;;;;;;;;;;5085062;28;24378;-60
2021/10/17 14:07:27;;;;;;;2.38;2.17;;;;;;;;;;5083648;28;24413;-59
2021/10/17 14:09:53;;;;;;;2.47;2.28;;;;;;;;;;5083169;28;24478;-59
2021/10/17 14:12:18;;;;;;;3.03;2.03;;;;;;;;;;5084001;28;24757;-59
2021/10/17 14:14:43;;;;;;;2.97;2.07;;;;;;;;;;5086838;28;24405;-59
2021/10/17 14:17:08;;;;;;;3.90;2.50;;;;;;;;;;5084972;28;24440;-59
2021/10/17 14:19:33;;;;;;;4.13;2.90;;;;;;;;;;5087339;28;24401;-59
2021/10/17 14:21:59;;;;;;;4.40;2.80;;;;;;;;;;5082569;28;24505;-59
2021/10/17 14:24:24;;;;;;;2.27;1.90;;;;;;;;;;5082438;28;24424;-59
2021/10/17 14:26:49;;;;;;;2.03;1.67;;;;;;;;;;5083349;28;24409;-59
2021/10/17 14:29:15;;;;;;;1.90;1.80;;;;;;;;;;5085224;28;24409;-59
2021/10/17 14:31:42;;;;;;;1.98;1.75;;;;;;;;;;5086479;28;25026;-59
2021/10/17 14:34:07;;;;;;;2.58;1.70;;;;;;;;;;5084491;28;24955;-59